Tiempo atmosférico en la estación meteorológica de Opakua, Araba/Álava (660 m.)



Fecha
DESCASC
Temp. máxima en grados centígrados (hora)
DESCASC
Temp. mínima en grados centígrados (hora)
DESCASC
Temp. media en grados centígrados
DESCASC
Racha de viento máxima en m/sg (hora)
DESCASC
Velocidad máxima media en intervalos de 10 minutos(hora)
DESCASC
Precipitaciones diarias en mm
DESCASC
Precipitaciones de 00:00 a 06:00 en mm
DESCASC
Precipitaciones de 06:00 a 12:00 en mm
DESCASC
Precipitaciones de 12:00 a 18:00 en mm
DESCASC
Precipitaciones de 18:00 a 24:00 en mm
DESCASC

Gráficas

Temp. máximas Temp. mínimas Temp. medias Precipitaciones Rachas de viento máximas Velocidades máximas media en intervalos de 10 minutos

Datos horarios

Fecha y hora oficial Temperatura (ºC) Velocidad del viento (km/h) Dirección del viento Racha (km/h) Dirección de racha Precipitación (mm) Presión (hPa) Tendencia (hPa) Humedad (%)
2020-06-03 23:00:00 13.5 3 Sudoeste 8 Sur 0 -- -- 92
2020-06-03 22:00:00 14.8 3 Sudeste 6 Sudeste 0 -- -- 90
2020-06-03 21:00:00 15.7 4 Noroeste 6 Noroeste 0 -- -- 88
2020-06-03 20:00:00 15.5 4 Noroeste 9 Noroeste 0 -- -- 89
2020-06-03 19:00:00 15.3 2 Sudoeste 9 Oeste 0.2 -- -- 90
2020-06-03 18:00:00 15.4 8 Noroeste 21 Noroeste 0.2 -- -- 84
2020-06-03 17:00:00 17.4 3 Norte 15 Noroeste 0.2 -- -- 82
2020-06-03 16:00:00 18.8 4 Norte 22 Norte 0 -- -- 70
2020-06-03 15:00:00 19.9 8 Noroeste 14 Noroeste 0 -- -- 76
2020-06-03 14:00:00 17.5 4 Noroeste 19 Noroeste 0 -- -- 90
2020-06-03 13:00:00 17.4 0 Calma 6 Oeste 0.2 -- -- 95
2020-06-03 12:00:00 17.3 0 Calma 8 Sudoeste 0 -- -- 94
2020-06-03 11:00:00 16.6 3 Sudoeste 10 Oeste 0 -- -- 96
2020-06-03 10:00:00 16.5 4 Sudoeste 10 Oeste 0 -- -- 97
2020-06-03 09:00:00 16.3 4 Oeste 17 Noroeste 0.2 -- -- 98
2020-06-03 08:00:00 16 3 Sudoeste 8 Oeste 0.2 -- -- 98
2020-06-03 07:00:00 15.7 3 Oeste 17 Noroeste 0 -- -- 97
2020-06-03 06:00:00 16 5 Sur 35 Oeste 0.8 -- -- 96
2020-06-03 05:00:00 15.8 3 Sur 9 Oeste 0 -- -- 96
2020-06-03 04:00:00 16.2 0 Calma 5 Sur 0 -- -- 92
2020-06-03 03:00:00 16.6 4 Sur 8 Sudoeste 0 -- -- 91
2020-06-03 02:00:00 16.1 3 Este 8 Sudeste 0 -- -- 92
2020-06-03 01:00:00 16.9 3 Este 7 Oeste 0 -- -- 89
2020-06-03 00:00:00 18.2 4 Sudoeste 15 Sudoeste 0 -- -- 86
2020-06-02 23:00:00 19.1 5 Sur 10 Sudeste 0 -- -- 84
2020-06-02 22:00:00 20.4 6 Sudeste 12 Sur 0 -- -- 81
2020-06-02 21:00:00 21.7 3 Sudoeste 8 Nordeste 0 -- -- 78
2020-06-02 20:00:00 22.2 6 Nordeste 16 Norte 0 -- -- 72
2020-06-02 19:00:00 24.2 4 Nordeste 18 Nordeste 0 -- -- 70
2020-06-02 18:00:00 25.6 8 Norte 22 Noroeste 0 -- -- 63
2020-06-02 17:00:00 24.7 4 Oeste 14 Oeste 0 -- -- 59
2020-06-02 16:00:00 25.4 6 Oeste 18 Oeste 0 -- -- 58
2020-06-02 15:00:00 26.1 8 Oeste 18 Oeste 0 -- -- 53
2020-06-02 14:00:00 25.9 6 Noroeste 13 Oeste 0 -- -- 56
2020-06-02 13:00:00 25.3 6 Oeste 12 Noroeste 0 -- -- 57
2020-06-02 12:00:00 24.2 3 Sudeste 8 Oeste 0 -- -- 61
2020-06-02 11:00:00 22 3 Nordeste 7 Nordeste 0 -- -- 67
2020-06-02 10:00:00 20.6 3 Sudoeste 6 Sudoeste 0 -- -- 68
2020-06-02 09:00:00 17.8 2 Oeste 5 Oeste 0 -- -- 81
2020-06-02 08:00:00 14.8 5 Sudeste 11 Sudeste 0 -- -- 88
2020-06-02 07:00:00 12.5 9 Sudeste 13 Sudeste 0 -- -- 91
2020-06-02 06:00:00 11.8 8 Sudeste 13 Sudeste 0 -- -- 92
2020-06-02 05:00:00 12.2 9 Sudeste 12 Sudeste 0 -- -- 92
2020-06-02 04:00:00 12.9 8 Sudeste 13 Sudeste 0 -- -- 90
2020-06-02 03:00:00 13.3 8 Sudeste 13 Sudeste 0 -- -- 91
2020-06-02 02:00:00 14.4 6 Sudeste 12 Sudeste 0 -- -- 90
2020-06-02 01:00:00 15.1 8 Sudeste 12 Sudeste 0 -- -- 89
2020-06-02 00:00:00 15.1 8 Sudeste 10 Sudeste 0 -- -- 87
2020-06-01 23:00:00 16.9 6 Sudeste 10 Sudeste 0 -- -- 82
2020-06-01 22:00:00 20 4 Sudoeste 12 Sudoeste 0 -- -- 75
2020-06-01 21:00:00 22 4 Noroeste 14 Noroeste 0 -- -- 71
2020-06-01 20:00:00 24.6 8 Norte 14 Noroeste 0 -- -- 63
2020-06-01 19:00:00 25.5 7 Noroeste 16 Noroeste 0 -- -- 58
2020-06-01 18:00:00 26.4 8 Oeste 18 Noroeste 0 -- -- 50
2020-06-01 17:00:00 26.3 2 Noroeste 15 Oeste 0 -- -- 51
2020-06-01 16:00:00 25.5 7 Oeste 17 Oeste 0 -- -- 51
2020-06-01 15:00:00 24.8 9 Oeste 16 Sudoeste 0 -- -- 55
2020-06-01 14:00:00 24.4 3 Sudoeste 13 Oeste 0 -- -- 59
2020-06-01 13:00:00 23.3 5 Sudoeste 14 Oeste 0 -- -- 60
2020-06-01 12:00:00 22.5 8 Oeste 15 Oeste 0 -- -- 65
2020-06-01 11:00:00 21.3 6 Noroeste 10 Oeste 0 -- -- 65
2020-06-01 10:00:00 18 2 Norte 5 Norte 0 -- -- 83
2020-06-01 09:00:00 16.3 0 Calma 8 Norte 0 -- -- 88
2020-06-01 08:00:00 15.2 5 Nordeste 9 Sur 0 -- -- 91
2020-06-01 07:00:00 14.8 3 Nordeste 23 Sudeste 0 -- -- 88
2020-06-01 06:00:00 15.8 15 Sudeste 35 Sudeste 0 -- -- 86
2020-06-01 05:00:00 15.5 19 Sudeste 35 Este 0 -- -- 86
2020-06-01 04:00:00 16.1 16 Sudeste 38 Sudeste 0 -- -- 82
2020-06-01 03:00:00 16.4 22 Sudeste 40 Este 0 -- -- 80
2020-06-01 02:00:00 16.9 13 Sudeste 49 Sudeste 0 -- -- 75
2020-06-01 01:00:00 17.7 26 Sudeste 46 Sudeste 0 -- -- 72
2020-06-01 00:00:00 17.5 23 Sudeste 40 Sudeste 0 -- -- 76
2020-05-31 23:00:00 18 19 Sudeste 33 Este 0 -- -- 82
2020-05-31 22:00:00 17.9 9 Sudeste 12 Sudeste 0 -- -- 79
2020-05-31 21:00:00 19.6 7 Sudeste 10 Este 0 -- -- 79
2020-05-31 20:00:00 21 3 Este 9 Noroeste 0 -- -- 77
2020-05-31 19:00:00 20.8 9 Noroeste 17 Noroeste 0 -- -- 74
2020-05-31 18:00:00 19.5 7 Sudeste 29 Este 0.2 -- -- 76
2020-05-31 17:00:00 18.2 11 Sudeste 24 Sur 0.6 -- -- 73
2020-05-31 16:00:00 22.3 10 Sur 21 Sudoeste 0 -- -- 69
2020-05-31 15:00:00 25.6 5 Sudoeste 14 Sudoeste 0 -- -- 56
2020-05-31 14:00:00 25.6 5 Este 19 Sudeste 0 -- -- 59
2020-05-31 13:00:00 23.7 12 Este 25 Sudeste 0 -- -- 60
2020-05-31 12:00:00 21.8 15 Sudeste 40 Este 0 -- -- 67
2020-05-31 11:00:00 20 22 Sudeste 44 Sudeste 0 -- -- 71
2020-05-31 10:00:00 19 22 Este 62 Este 0 -- -- 73
2020-05-31 09:00:00 17.7 30 Este 54 Sudeste 0 -- -- 78
2020-05-31 08:00:00 16.7 30 Sudeste 51 Sudeste 0 -- -- 81
2020-05-31 07:00:00 16.2 31 Sudeste 53 Sudeste 0 -- -- 83
2020-05-31 06:00:00 16.3 28 Sudeste 49 Sudeste 0 -- -- 82
2020-05-31 05:00:00 17 10 Sudeste 33 Sur 0 -- -- 79
2020-05-31 04:00:00 17.6 12 Este 28 Este 0 -- -- 78
2020-05-31 03:00:00 18.3 9 Sudeste 25 Sudeste 0 -- -- 76
2020-05-31 02:00:00 16.9 4 Oeste 13 Sudeste 0 -- -- 74
2020-05-31 01:00:00 17.2 3 Sudoeste 13 Este 0 -- -- 70
2020-05-31 00:00:00 18.6 4 Nordeste 13 Nordeste 0 -- -- 70
2020-05-30 23:00:00 18.7 4 Norte 13 Sudeste 0 -- -- 69
2020-05-30 22:00:00 20.4 5 Nordeste 12 Este 0 -- -- 61
2020-05-30 21:00:00 24.8 2 Sudeste 12 Este 0 -- -- 50
2020-05-30 20:00:00 26.2 6 Este 12 Este 0 -- -- 41
2020-05-30 19:00:00 28 3 Noroeste 10 Noroeste 0 -- -- 39
2020-05-30 18:00:00 27.8 4 Oeste 13 Noroeste 0 -- -- 41
2020-05-30 17:00:00 26.9 3 Nordeste 13 Este 0 -- -- 36
2020-05-30 16:00:00 26.4 6 Nordeste 14 Este 0 -- -- 39
2020-05-30 15:00:00 25.9 5 Este 14 Este 0 -- -- 40
2020-05-30 14:00:00 24.8 8 Sudeste 17 Este 0 -- -- 45
2020-05-30 13:00:00 23.8 8 Sudeste 20 Sudeste 0 -- -- 51
2020-05-30 12:00:00 22.4 12 Este 28 Este 0 -- -- 54
2020-05-30 11:00:00 20.7 17 Sudeste 36 Este 0 -- -- 60
2020-05-30 10:00:00 19.8 12 Sudeste 27 Sudeste 0 -- -- 62
2020-05-30 09:00:00 18 6 Norte 12 Norte 0 -- -- 67
2020-05-30 08:00:00 15.6 6 Norte 11 Nordeste 0 -- -- 73
2020-05-30 07:00:00 13.7 4 Oeste 26 Este 0 -- -- 78
2020-05-30 06:00:00 13.7 4 Sudeste 18 Sudeste 0 -- -- 78
2020-05-30 05:00:00 14.7 8 Este 22 Este 0 -- -- 75
2020-05-30 04:00:00 14.7 4 Este 22 Este 0 -- -- 74
2020-05-30 03:00:00 11.6 11 Sudeste 14 Sudeste 0 -- -- 81
2020-05-30 02:00:00 12.3 9 Sudeste 14 Sudeste 0 -- -- 81
2020-05-30 01:00:00 13 9 Sudeste 13 Sudeste 0 -- -- 78
2020-05-30 00:00:00 14.2 9 Sudeste 12 Sudeste 0 -- -- 73
2020-05-29 23:00:00 15.5 6 Sudeste 13 Sur 0 -- -- 65
2020-05-29 22:00:00 18.8 5 Este 16 Nordeste 0 -- -- 56
2020-05-29 21:00:00 21.8 4 Norte 14 Norte 0 -- -- 48
2020-05-29 20:00:00 23.7 6 Norte 17 Nordeste 0 -- -- 48
2020-05-29 19:00:00 24.8 10 Nordeste 21 Nordeste 0 -- -- 48
2020-05-29 18:00:00 25.9 10 Nordeste 21 Nordeste 0 -- -- 49
2020-05-29 17:00:00 26.4 9 Norte 19 Nordeste 0 -- -- 49
2020-05-29 16:00:00 26.5 9 Norte 21 Noroeste 0 -- -- 49
2020-05-29 15:00:00 26.5 8 Noroeste 23 Noroeste 0 -- -- 46
2020-05-29 14:00:00 26.1 5 Norte 21 Este 0 -- -- 50
2020-05-29 13:00:00 25.5 4 Sudeste 11 Noroeste 0 -- -- 45
2020-05-29 12:00:00 24.1 4 Sur 9 Sur 0 -- -- 50
2020-05-29 11:00:00 22 3 Oeste 8 Oeste 0 -- -- 56
2020-05-29 10:00:00 20.6 3 Noroeste 6 Noroeste 0 -- -- 61
2020-05-29 09:00:00 17.9 0 Calma 4 Sur 0 -- -- 68
2020-05-29 08:00:00 14.3 4 Sudeste 8 Sur 0 -- -- 81
2020-05-29 07:00:00 11.3 3 Sudoeste 9 Sudeste 0 -- -- 82
2020-05-29 06:00:00 12.3 3 Sudeste 18 Este 0 -- -- 78
2020-05-29 05:00:00 12.2 8 Este 14 Nordeste 0 -- -- 80
2020-05-29 04:00:00 13.3 10 Sudeste 14 Sudeste 0 -- -- 76
2020-05-29 03:00:00 13.4 5 Sudeste 17 Este 0 -- -- 79
2020-05-29 02:00:00 15.7 8 Nordeste 14 Este 0 -- -- 71
2020-05-29 01:00:00 15.5 7 Nordeste 13 Nordeste 0 -- -- 68
2020-05-29 00:00:00 17.4 5 Norte 20 Sudeste 0 -- -- 66
2020-05-28 23:00:00 17.7 15 Sudeste 20 Sudeste 0 -- -- 59
2020-05-28 22:00:00 18.8 12 Sudeste 16 Sudeste 0 -- -- 57
2020-05-28 21:00:00 23.3 9 Este 12 Este 0 -- -- 48
2020-05-28 20:00:00 25.5 6 Nordeste 14 Nordeste 0 -- -- 35
2020-05-28 19:00:00 26.3 7 Este 21 Sudeste 0 -- -- 36
2020-05-28 18:00:00 26.6 9 Este 17 Este 0 -- -- 36
2020-05-28 17:00:00 26.6 9 Sudeste 23 Sudeste 0 -- -- 34
2020-05-28 16:00:00 26.4 6 Este 25 Sur 0 -- -- 36
2020-05-28 15:00:00 25.8 12 Sur 32 Sudeste 0 -- -- 41
2020-05-28 14:00:00 24.5 18 Sudeste 36 Sudeste 0 -- -- 44
2020-05-28 13:00:00 23.6 21 Sudeste 36 Sudeste 0 -- -- 45
2020-05-28 12:00:00 22.6 15 Sudeste 46 Este 0 -- -- 49
2020-05-28 11:00:00 20.8 27 Sudeste 51 Sudeste 0 -- -- 53
2020-05-28 10:00:00 19.4 28 Sudeste 55 Sudeste 0 -- -- 55
2020-05-28 09:00:00 18.3 25 Sudeste 50 Sudeste 0 -- -- 57
2020-05-28 08:00:00 17.1 23 Sudeste 47 Sudeste 0 -- -- 57
2020-05-28 07:00:00 16.2 30 Sudeste 55 Sudeste 0 -- -- 57
2020-05-28 06:00:00 16.6 33 Sudeste 54 Sudeste 0 -- -- 56
2020-05-28 05:00:00 17.1 31 Sudeste 53 Este 0 -- -- 56
2020-05-28 04:00:00 17.3 28 Sudeste 48 Sudeste 0 -- -- 59
2020-05-28 03:00:00 17.9 28 Sudeste 45 Sudeste 0 -- -- 67
2020-05-28 02:00:00 18.8 21 Sudeste 35 Este 0 -- -- 71
2020-05-28 01:00:00 18.5 10 Este 21 Sudeste 0 -- -- 74
2020-05-28 00:00:00 17.4 5 Sudeste 18 Sudeste 0 -- -- 82
2020-05-27 23:00:00 19.2 2 Sudoeste 10 Sudeste 0 -- -- 79
2020-05-27 22:00:00 20.7 2 Este 21 Este 0 -- -- 74
2020-05-27 21:00:00 22.5 14 Este 29 Este 0 -- -- 69
2020-05-27 20:00:00 24.4 14 Este 23 Este 0 -- -- 63
2020-05-27 19:00:00 25.6 13 Nordeste 22 Nordeste 0 -- -- 62
2020-05-27 18:00:00 26.6 6 Norte 15 Nordeste 0 -- -- 56
2020-05-27 17:00:00 26.8 8 Norte 17 Nordeste 0 -- -- 51
2020-05-27 16:00:00 26.6 5 Norte 15 Este 0 -- -- 52
2020-05-27 15:00:00 25.6 7 Norte 14 Nordeste 0 -- -- 56
2020-05-27 14:00:00 24.7 4 Oeste 11 Oeste 0 -- -- 61
2020-05-27 13:00:00 23.4 3 Norte 9 Noroeste 0 -- -- 65
2020-05-27 12:00:00 21.3 5 Oeste 9 Oeste 0 -- -- 67
2020-05-27 11:00:00 19.3 3 Sudoeste 8 Oeste 0 -- -- 69
2020-05-27 10:00:00 17 3 Oeste 7 Oeste 0 -- -- 75
2020-05-27 09:00:00 15.7 3 Norte 5 Norte 0 -- -- 83
2020-05-27 08:00:00 12 3 Sudeste 10 Sudeste 0 -- -- 96
2020-05-27 07:00:00 9.3 7 Sudeste 11 Sudeste 0 -- -- 96
2020-05-27 06:00:00 9.5 8 Sudeste 12 Sudeste 0 -- -- 95
2020-05-27 05:00:00 9.8 5 Sudeste 12 Sudeste 0 -- -- 93
2020-05-27 04:00:00 10.4 9 Sudeste 14 Sudeste 0 -- -- 93
2020-05-27 03:00:00 10.6 7 Sudeste 12 Sudeste 0 -- -- 92
2020-05-27 02:00:00 11.3 8 Sudeste 14 Sudeste 0 -- -- 91
2020-05-27 01:00:00 11.7 6 Sudeste 11 Sudeste 0 -- -- 88
2020-05-27 00:00:00 13.2 4 Sudoeste 10 Oeste 0 -- -- 81
2020-05-26 23:00:00 13.6 5 Sudeste 13 Este 0 -- -- 76
2020-05-26 22:00:00 15.7 9 Este 15 Nordeste 0 -- -- 68
2020-05-26 21:00:00 18.6 7 Nordeste 19 Nordeste 0 -- -- 62
2020-05-26 20:00:00 19.9 13 Nordeste 23 Nordeste 0 -- -- 59
2020-05-26 19:00:00 21.3 9 Nordeste 21 Nordeste 0 -- -- 61
2020-05-26 18:00:00 22.3 9 Norte 19 Norte 0 -- -- 62
2020-05-26 17:00:00 23.1 13 Noroeste 22 Oeste 0 -- -- 62
2020-05-26 16:00:00 22.2 5 Nordeste 17 Nordeste 0 -- -- 57
2020-05-26 15:00:00 21.4 11 Nordeste 24 Nordeste 0 -- -- 61
2020-05-26 14:00:00 21.3 11 Nordeste 22 Nordeste 0 -- -- 63
2020-05-26 13:00:00 20.8 7 Noroeste 14 Oeste 0 -- -- 63
2020-05-26 12:00:00 18.3 3 Noroeste 10 Sudoeste 0 -- -- 74
2020-05-26 11:00:00 16.5 4 Oeste 12 Noroeste 0 -- -- 79
2020-05-26 10:00:00 14.9 5 Oeste 9 Oeste 0 -- -- 83
2020-05-26 09:00:00 13.1 3 Norte 6 Noroeste 0 -- -- 91
2020-05-26 08:00:00 10.6 4 Sudeste 8 Sudeste 0 -- -- 96
2020-05-26 07:00:00 10.7 0 Calma 4 Sudeste 0 -- -- 96
2020-05-26 06:00:00 10.5 0 Calma 8 Sudoeste 0 -- -- 98
2020-05-26 05:00:00 8.9 6 Sudeste 9 Sudeste 0 -- -- 97
2020-05-26 04:00:00 8.7 8 Sudeste 11 Sudeste 0 -- -- 94
2020-05-26 03:00:00 9.3 6 Sudeste 10 Sudeste 0 -- -- 92
2020-05-26 02:00:00 10.2 5 Sudeste 8 Sudeste 0 -- -- 91
2020-05-26 01:00:00 10.7 5 Sudeste 11 Sur 0 -- -- 90
2020-05-26 00:00:00 11.1 7 Sudeste 9 Sudeste 0 -- -- 87
2020-05-25 23:00:00 11.9 5 Sudeste 10 Sudeste 0 -- -- 85
2020-05-25 22:00:00 14.3 3 Sudeste 6 Este 0 -- -- 80
2020-05-25 21:00:00 15.5 3 Este 9 Nordeste 0 -- -- 75
2020-05-25 20:00:00 16.1 5 Nordeste 18 Nordeste 0 -- -- 78
2020-05-25 19:00:00 16.6 9 Nordeste 19 Nordeste 0 -- -- 79
2020-05-25 18:00:00 17.9 10 Nordeste 20 Nordeste 0 -- -- 78
2020-05-25 17:00:00 18.8 9 Nordeste 19 Nordeste 0 -- -- 73
2020-05-25 16:00:00 17.7 8 Nordeste 17 Nordeste 0 -- -- 74
2020-05-25 15:00:00 18 6 Nordeste 14 Norte 0 -- -- 73
2020-05-25 14:00:00 17.9 6 Norte 12 Norte 0 -- -- 71
2020-05-25 13:00:00 16.4 4 Oeste 6 Noroeste 0 -- -- 78
2020-05-25 12:00:00 16 3 Noroeste 6 Sur 0 -- -- 80
2020-05-25 11:00:00 14.9 3 Sudoeste 8 Noroeste 0 -- -- 84
2020-05-25 10:00:00 13.7 2 Oeste 5 Nordeste 0 -- -- 88
2020-05-25 09:00:00 12.2 0 Calma 4 Oeste 0 -- -- 92
2020-05-25 08:00:00 11.3 2 Noroeste 6 Sudeste 0 -- -- 98
2020-05-25 07:00:00 9.4 5 Sudeste 8 Sudeste 0 -- -- 97
2020-05-25 06:00:00 9.3 5 Sudeste 8 Sudeste 0 -- -- 96
2020-05-25 05:00:00 9.4 6 Sudeste 9 Sudeste 0 -- -- 96
2020-05-25 04:00:00 9.6 6 Sudeste 9 Sudeste 0 -- -- 94
2020-05-25 03:00:00 10.9 4 Sudeste 5 Sudeste 0 -- -- 93
2020-05-25 02:00:00 11.5 0 Calma 6 Oeste 0 -- -- 92
2020-05-25 01:00:00 12 6 Oeste 10 Este 0 -- -- 89
2020-05-25 00:00:00 11.9 6 Este 11 Este 0 -- -- 91
2020-05-24 23:00:00 12.7 3 Sur 13 Nordeste 0 -- -- 89
2020-05-24 22:00:00 13.4 7 Nordeste 21 Nordeste 0 -- -- 86
2020-05-24 21:00:00 14 10 Nordeste 27 Nordeste 0 -- -- 84
2020-05-24 20:00:00 15.2 14 Nordeste 26 Nordeste 0 -- -- 80
2020-05-24 19:00:00 17.8 13 Nordeste 26 Nordeste 0 -- -- 73
2020-05-24 18:00:00 19.3 9 Nordeste 21 Nordeste 0 -- -- 70
2020-05-24 17:00:00 19.9 9 Nordeste 23 Nordeste 0 -- -- 66
2020-05-24 16:00:00 19.6 7 Norte 16 Norte 0 -- -- 63
2020-05-24 15:00:00 18.3 6 Noroeste 16 Norte 0 -- -- 68
2020-05-24 14:00:00 17.2 11 Norte 23 Norte 0 -- -- 73
2020-05-24 13:00:00 15.8 12 Norte 24 Nordeste 0 -- -- 73
2020-05-24 12:00:00 15 8 Nordeste 22 Este 0 -- -- 66
2020-05-24 11:00:00 13.2 11 Nordeste 23 Nordeste 0 -- -- 74
2020-05-24 10:00:00 12.8 6 Norte 21 Noroeste 0 -- -- 77
2020-05-24 09:00:00 9.8 5 Noroeste 12 Nordeste 0 -- -- 92
2020-05-24 08:00:00 8.4 3 Sudoeste 8 Sudoeste 0 -- -- 96
2020-05-24 07:00:00 7.1 3 Este 9 Este 0 -- -- 97
2020-05-24 06:00:00 7.2 3 Este 7 Este 0 -- -- 96
2020-05-24 05:00:00 7.2 3 Este 9 Este 0 -- -- 96
2020-05-24 04:00:00 7.5 2 Sudeste 10 Oeste 0 -- -- 95
2020-05-24 03:00:00 6.4 4 Sudeste 10 Sudeste 0 -- -- 94
2020-05-24 02:00:00 7.5 4 Sudeste 7 Este 0 -- -- 93
2020-05-24 01:00:00 8.6 2 Este 5 Sudoeste 0 -- -- 91
2020-05-24 00:00:00 8.6 2 Este 15 Este 0 -- -- 89
2020-05-23 23:00:00 9.4 7 Este 13 Este 0 -- -- 84
2020-05-23 22:00:00 10 4 Nordeste 14 Este 0 -- -- 81
2020-05-23 21:00:00 11.8 4 Norte 19 Nordeste 0 -- -- 83
2020-05-23 20:00:00 12.9 7 Nordeste 25 Nordeste 0 -- -- 80
2020-05-23 19:00:00 13 10 Nordeste 26 Nordeste 0 -- -- 83
2020-05-23 18:00:00 13.7 11 Nordeste 29 Nordeste 0 -- -- 81
2020-05-23 17:00:00 13.8 14 Nordeste 29 Nordeste 0 -- -- 80
2020-05-23 16:00:00 13.8 14 Nordeste 35 Nordeste 0 -- -- 78
2020-05-23 15:00:00 14.5 16 Nordeste 33 Nordeste 0 -- -- 81
2020-05-23 14:00:00 15 11 Nordeste 22 Nordeste 0 -- -- 78
2020-05-23 13:00:00 14.2 10 Nordeste 23 Nordeste 0 -- -- 83
2020-05-23 12:00:00 14.1 6 Norte 23 Noroeste 0 -- -- 86
2020-05-23 11:00:00 14.1 12 Noroeste 22 Noroeste 0 -- -- 91
2020-05-23 10:00:00 14.6 12 Noroeste 19 Noroeste 0 -- -- 92
2020-05-23 09:00:00 14.5 3 Oeste 8 Sur 0 -- -- 94
2020-05-23 08:00:00 14.1 4 Sudoeste 9 Sudoeste 0 -- -- 95
2020-05-23 07:00:00 14 3 Sur 6 Sudoeste 0 -- -- 96
2020-05-23 06:00:00 14 3 Sur 7 Sur 0.2 -- -- 97
2020-05-23 05:00:00 13.8 0 Calma 15 Noroeste 0 -- -- 97
2020-05-23 04:00:00 13.9 10 Noroeste 15 Noroeste 0 -- -- 97
2020-05-23 03:00:00 14.3 5 Oeste 12 Oeste 0 -- -- 97
2020-05-23 02:00:00 14.6 5 Oeste 9 Noroeste 0 -- -- 95
2020-05-23 01:00:00 15.2 5 Noroeste 9 Nordeste 0 -- -- 92
2020-05-23 00:00:00 15.5 0 Calma 9 Sudoeste 0 -- -- 92
2020-05-22 23:00:00 15.8 3 Sudoeste 16 Oeste 0 -- -- 90
2020-05-22 22:00:00 16.3 5 Sudoeste 17 Oeste 0 -- -- 89
2020-05-22 21:00:00 18.7 8 Oeste 25 Sudoeste 0 -- -- 81
2020-05-22 20:00:00 24.5 9 Oeste 18 Sudoeste 0 -- -- 70
2020-05-22 19:00:00 27.2 7 Oeste 10 Oeste 0 -- -- 60
2020-05-22 18:00:00 27.2 4 Noroeste 13 Norte 0 -- -- 60
2020-05-22 17:00:00 26.6 6 Norte 11 Noroeste 0 -- -- 58
2020-05-22 16:00:00 26.3 5 Noroeste 11 Norte 0 -- -- 62
2020-05-22 15:00:00 25.4 6 Norte 14 Norte 0 -- -- 57
2020-05-22 14:00:00 24.5 6 Oeste 12 Este 0 -- -- 57
2020-05-22 13:00:00 23.3 4 Norte 13 Oeste 0 -- -- 61
2020-05-22 12:00:00 21.7 4 Noroeste 14 Nordeste 0 -- -- 59
2020-05-22 11:00:00 20.1 4 Oeste 12 Oeste 0 -- -- 63
2020-05-22 10:00:00 18.1 4 Oeste 10 Oeste 0 -- -- 65
2020-05-22 09:00:00 16.8 3 Sudoeste 8 Sudoeste 0 -- -- 79
2020-05-22 08:00:00 15.5 3 Noroeste 10 Sudeste 0 -- -- 82
2020-05-22 07:00:00 12.5 8 Sudeste 14 Sudeste 0 -- -- 87
2020-05-22 06:00:00 13.3 10 Sudeste 13 Sudeste 0 -- -- 80
2020-05-22 05:00:00 12.8 8 Sudeste 12 Sudeste 0 -- -- 84
2020-05-22 04:00:00 13.2 8 Sudeste 14 Sudeste 0 -- -- 79
2020-05-22 03:00:00 13.9 6 Sudeste 10 Sudeste 0 -- -- 76
2020-05-22 02:00:00 15 5 Sudeste 17 Sudeste 0 -- -- 72
2020-05-22 01:00:00 15.4 9 Sudeste 14 Sudeste 0 -- -- 68
2020-05-22 00:00:00 16.9 8 Sudeste 14 Sudeste 0 -- -- 67
2020-05-21 23:00:00 17.4 10 Sudeste 15 Sudeste 0 -- -- 65
2020-05-21 22:00:00 17.7 13 Sudeste 16 Sudeste 0 -- -- 58
2020-05-21 21:00:00 21.9 9 Sudeste 11 Sudeste 0 -- -- 69
2020-05-21 20:00:00 27.7 3 Noroeste 6 Noroeste 0 -- -- 50
2020-05-21 19:00:00 27.7 3 Oeste 10 Oeste 0 -- -- 48
2020-05-21 18:00:00 27.6 6 Oeste 11 Oeste 0 -- -- 48
2020-05-21 17:00:00 26.9 4 Noroeste 8 Norte 0 -- -- 49
2020-05-21 16:00:00 26.1 2 Noroeste 9 Norte 0 -- -- 51
2020-05-21 15:00:00 24.9 3 Norte 9 Oeste 0 -- -- 50
2020-05-21 14:00:00 23.5 3 Sudeste 9 Oeste 0 -- -- 61
2020-05-21 13:00:00 21.6 4 Norte 10 Noroeste 0 -- -- 64
2020-05-21 12:00:00 19.9 3 Oeste 10 Oeste 0 -- -- 65
2020-05-21 11:00:00 -- -- -- -- -- -- -- -- --
2020-05-21 10:00:00 16 3 Oeste 6 Noroeste 0 -- -- 76
2020-05-21 09:00:00 13.7 4 Oeste 7 Oeste 0 -- -- 87
2020-05-21 08:00:00 10.8 4 Oeste 12 Sudeste 0 -- -- 93
2020-05-21 07:00:00 8.6 8 Sudeste 12 Sudeste 0 -- -- 96
2020-05-21 06:00:00 8.6 5 Sudeste 10 Sudeste 0 -- -- 94
2020-05-21 05:00:00 9.3 8 Sudeste 9 Sudeste 0 -- -- 95
2020-05-21 04:00:00 10.3 8 Sudeste 12 Sudoeste 0 -- -- 94
2020-05-21 03:00:00 10.5 5 Sudeste 12 Sudeste 0 -- -- 91
2020-05-21 02:00:00 11.6 5 Sudeste 13 Sudeste 0 -- -- 88
2020-05-21 01:00:00 11.8 8 Sudeste 12 Sudeste 0 -- -- 86
2020-05-21 00:00:00 12.8 10 Sudeste 13 Sudeste 0 -- -- 84
2020-05-20 23:00:00 13.8 9 Sudeste 13 Sudeste 0 -- -- 83
2020-05-20 22:00:00 16.1 6 Sudeste 10 Sudeste 0 -- -- 76
2020-05-20 21:00:00 21.6 2 Noroeste 10 Norte 0 -- -- 60
2020-05-20 20:00:00 23.1 6 Norte 15 Norte 0 -- -- 54
2020-05-20 19:00:00 24.4 7 Noroeste 18 Norte 0 -- -- 49
2020-05-20 18:00:00 24.7 10 Nordeste 19 Nordeste 0 -- -- 43
2020-05-20 17:00:00 25.1 9 Norte 17 Nordeste 0 -- -- 41
2020-05-20 16:00:00 25.4 3 Oeste 14 Nordeste 0 -- -- 39
2020-05-20 15:00:00 24.4 6 Norte 16 Noroeste 0 -- -- 45
2020-05-20 14:00:00 23.5 6 Noroeste 13 Norte 0 -- -- 57
2020-05-20 13:00:00 22.2 5 Sudoeste 11 Oeste 0 -- -- 56
2020-05-20 12:00:00 20.4 4 Noroeste 10 Oeste 0 -- -- 64
2020-05-20 11:00:00 18.6 4 Oeste 9 Noroeste 0 -- -- 66
2020-05-20 10:00:00 17.4 2 Noroeste 6 Norte 0 -- -- 67
2020-05-20 09:00:00 14.4 3 Oeste 5 Sudeste 0 -- -- 78
2020-05-20 08:00:00 11.3 4 Sudeste 10 Este 0 -- -- 91
2020-05-20 07:00:00 8.4 9 Sudeste 12 Sudeste 0 -- -- 95
2020-05-20 06:00:00 8.3 9 Sudeste 12 Sudeste 0 -- -- 94
2020-05-20 05:00:00 8.2 9 Sudeste 15 Sudeste 0 -- -- 93
2020-05-20 04:00:00 8.1 8 Sudeste 13 Sudeste 0 -- -- 92
2020-05-20 03:00:00 9 9 Sudeste 14 Sudeste 0 -- -- 90
2020-05-20 02:00:00 10.1 3 Sur 13 Este 0 -- -- 86
2020-05-20 01:00:00 11.3 8 Este 12 Este 0 -- -- 84
2020-05-20 00:00:00 12.3 8 Sudeste 17 Este 0 -- -- 79
2020-05-19 23:00:00 14.3 9 Este 18 Este 0 -- -- 69
2020-05-19 22:00:00 15.5 12 Nordeste 27 Nordeste 0 -- -- 63
2020-05-19 21:00:00 17.1 9 Nordeste 21 Nordeste 0 -- -- 60
2020-05-19 20:00:00 18.9 8 Nordeste 24 Nordeste 0 -- -- 58
2020-05-19 19:00:00 19.6 14 Nordeste 26 Nordeste 0 -- -- 56
2020-05-19 18:00:00 21.2 9 Nordeste 20 Norte 0 -- -- 55
2020-05-19 17:00:00 21.4 10 Nordeste 24 Nordeste 0 -- -- 54
2020-05-19 16:00:00 21.5 11 Nordeste 21 Norte 0 -- -- 54
2020-05-19 15:00:00 21 9 Nordeste 19 Nordeste 0 -- -- 54
2020-05-19 14:00:00 20.3 7 Nordeste 26 Norte 0 -- -- 58
2020-05-19 13:00:00 19.5 12 Nordeste 24 Este 0 -- -- 53
2020-05-19 12:00:00 18.8 6 Nordeste 15 Nordeste 0 -- -- 65
2020-05-19 11:00:00 16.3 5 Noroeste 10 Noroeste 0 -- -- 72
2020-05-19 10:00:00 14.4 4 Sudoeste 8 Sudoeste 0 -- -- 72
2020-05-19 09:00:00 12.5 2 Oeste 6 Sur 0 -- -- 77
2020-05-19 08:00:00 8.6 3 Sudeste 11 Sudeste 0 -- -- 97
2020-05-19 07:00:00 6.1 6 Sudeste 9 Sudeste 0 -- -- 96
2020-05-19 06:00:00 6.3 7 Sudeste 12 Sudeste 0 -- -- 95
2020-05-19 05:00:00 6.7 8 Sudeste 13 Sudeste 0 -- -- 94
2020-05-19 04:00:00 6.8 8 Sudeste 13 Sudeste 0 -- -- 94
2020-05-19 03:00:00 6.8 8 Sudeste 13 Sudeste 0 -- -- 92
2020-05-19 02:00:00 7.4 9 Sudeste 13 Sudeste 0 -- -- 91
2020-05-19 01:00:00 8.2 8 Sudeste 12 Sudeste 0 -- -- 89
2020-05-19 00:00:00 8.6 8 Sudeste 12 Sudeste 0 -- -- 87
2020-05-18 23:00:00 9.7 7 Sudeste 14 Norte 0 -- -- 83
2020-05-18 22:00:00 12.8 5 Nordeste 14 Este 0 -- -- 70
2020-05-18 21:00:00 15.3 4 Nordeste 17 Norte 0 -- -- 65
2020-05-18 20:00:00 16.8 7 Norte 23 Nordeste 0 -- -- 57
2020-05-18 19:00:00 17.9 11 Norte 24 Norte 0 -- -- 54
2020-05-18 18:00:00 19 10 Norte 21 Norte 0 -- -- 59
2020-05-18 17:00:00 19.3 12 Norte 26 Norte 0 -- -- 56
2020-05-18 16:00:00 19.3 11 Norte 24 Nordeste 0 -- -- 57
2020-05-18 15:00:00 19.1 13 Nordeste 26 Nordeste 0 -- -- 59
2020-05-18 14:00:00 18.6 13 Nordeste 26 Nordeste 0 -- -- 56
2020-05-18 13:00:00 17.9 10 Norte 24 Norte 0 -- -- 53
2020-05-18 12:00:00 16.9 7 Noroeste 16 Noroeste 0 -- -- 66
2020-05-18 11:00:00 14.9 6 Oeste 10 Sudoeste 0 -- -- 73
2020-05-18 10:00:00 12.6 4 Oeste 10 Oeste 0 -- -- 77
2020-05-18 09:00:00 11.5 2 Norte 6 Sudeste 0 -- -- 76
2020-05-18 08:00:00 7.6 5 Sudeste 13 Sudeste 0 -- -- 94
2020-05-18 07:00:00 5.2 8 Sudeste 14 Sudeste 0 -- -- 96
2020-05-18 06:00:00 5.1 8 Sudeste 13 Sudeste 0 -- -- 96
2020-05-18 05:00:00 5.5 6 Sur 13 Sudeste 0 -- -- 96
2020-05-18 04:00:00 5.6 8 Sudeste 13 Sudeste 0 -- -- 95
2020-05-18 03:00:00 5.8 8 Sudeste 13 Sudeste 0 -- -- 95
2020-05-18 02:00:00 6.1 8 Sudeste 12 Sudeste 0 -- -- 94
2020-05-18 01:00:00 6.3 9 Sudeste 12 Sudeste 0 -- -- 93
2020-05-18 00:00:00 7 8 Sudeste 12 Sudeste 0 -- -- 88
2020-05-17 23:00:00 8.3 9 Sudeste 13 Sudeste 0 -- -- 82
2020-05-17 22:00:00 10 6 Sur 17 Norte 0 -- -- 79
2020-05-17 21:00:00 13.1 8 Nordeste 22 Nordeste 0 -- -- 67
2020-05-17 20:00:00 14.7 9 Nordeste 31 Nordeste 0 -- -- 63
2020-05-17 19:00:00 15.8 12 Nordeste 27 Nordeste 0 -- -- 61
2020-05-17 18:00:00 16.7 12 Nordeste 26 Nordeste 0 -- -- 64
2020-05-17 17:00:00 16.9 13 Nordeste 24 Nordeste 0 -- -- 63
2020-05-17 16:00:00 16.8 7 Norte 20 Nordeste 0 -- -- 60
2020-05-17 15:00:00 16 9 Nordeste 21 Nordeste 0 -- -- 65
2020-05-17 14:00:00 15.1 10 Nordeste 24 Norte 0 -- -- 65
2020-05-17 13:00:00 14.3 9 Nordeste 24 Norte 0 -- -- 70
2020-05-17 12:00:00 12.9 5 Norte 13 Nordeste 0 -- -- 79
2020-05-17 11:00:00 10.2 3 Oeste 8 Oeste 0 -- -- 90
2020-05-17 10:00:00 8.6 0 Calma 8 Oeste 0 -- -- 97
2020-05-17 09:00:00 7.3 3 Sudoeste 8 Sudoeste 0 -- -- 100
2020-05-17 08:00:00 5.3 4 Sudeste 8 Sudeste 0 -- -- 98
2020-05-17 07:00:00 5.2 6 Sudeste 8 Sudeste 0 -- -- 98
2020-05-17 06:00:00 6.4 2 Nordeste 9 Sur 0 -- -- 97
2020-05-17 05:00:00 6.2 4 Sur 8 Sudoeste 0 -- -- 99
2020-05-17 04:00:00 5.2 6 Sudeste 11 Sudeste 0 -- -- 98
2020-05-17 03:00:00 5.5 3 Este 12 Sudeste 0 -- -- 98
2020-05-17 02:00:00 5.2 6 Sudeste 14 Sudeste 0 -- -- 96
2020-05-17 01:00:00 5.8 6 Sudeste 10 Sudeste 0 -- -- 95
2020-05-17 00:00:00 6.9 6 Sudeste 10 Sudeste 0 -- -- 92
2020-05-16 23:00:00 8.3 4 Sur 8 Sur 0 -- -- 92
2020-05-16 22:00:00 8.9 3 Sur 15 Noroeste 0 -- -- 89
2020-05-16 21:00:00 11 9 Noroeste 18 Noroeste 0 -- -- 85
2020-05-16 20:00:00 12.1 5 Norte 26 Noroeste 0 -- -- 79
2020-05-16 19:00:00 14.2 21 Noroeste 33 Noroeste 0 -- -- 74
2020-05-16 18:00:00 13.3 15 Noroeste 24 Noroeste 0 -- -- 80
2020-05-16 17:00:00 14 10 Norte 22 Norte 0 -- -- 79
2020-05-16 16:00:00 12.6 6 Norte 22 Noroeste 0 -- -- 82
2020-05-16 15:00:00 12.5 14 Noroeste 22 Noroeste 0 -- -- 84
2020-05-16 14:00:00 12 14 Noroeste 23 Noroeste 0 -- -- 84
2020-05-16 13:00:00 11.3 10 Noroeste 21 Noroeste 0 -- -- 87
2020-05-16 12:00:00 10.7 10 Noroeste 22 Noroeste 0 -- -- 91
2020-05-16 11:00:00 10.7 14 Noroeste 23 Noroeste 0 -- -- 91
2020-05-16 10:00:00 9.4 5 Oeste 12 Oeste 0 -- -- 98
2020-05-16 09:00:00 9 4 Oeste 9 Oeste 0 -- -- 98
2020-05-16 08:00:00 8.7 2 Oeste 8 Noroeste 0 -- -- 98
2020-05-16 07:00:00 8.5 0 Calma 8 Oeste 0 -- -- 98
2020-05-16 06:00:00 8.4 3 Sudoeste 7 Sudoeste 0 -- -- 97
2020-05-16 05:00:00 8.3 3 Sudoeste 9 Oeste 0 -- -- 97
2020-05-16 04:00:00 8.2 3 Oeste 8 Oeste 0 -- -- 97
2020-05-16 03:00:00 8.1 2 Sudoeste 8 Sudoeste 0 -- -- 96
2020-05-16 02:00:00 8.2 3 Oeste 8 Oeste 0 -- -- 95
2020-05-16 01:00:00 8.2 6 Oeste 11 Oeste 0 -- -- 94
2020-05-16 00:00:00 8.2 4 Oeste 12 Noroeste 0 -- -- 92
2020-05-15 23:00:00 8.3 6 Noroeste 15 Noroeste 0 -- -- 91
2020-05-15 22:00:00 8.4 9 Noroeste 18 Noroeste 0 -- -- 88
2020-05-15 21:00:00 8.9 11 Noroeste 19 Noroeste 0 -- -- 88
2020-05-15 20:00:00 9.3 10 Noroeste 18 Noroeste 0 -- -- 90
2020-05-15 19:00:00 9.6 9 Norte 18 Norte 0 -- -- 88
2020-05-15 18:00:00 9.9 10 Noroeste 22 Norte 0 -- -- 87
2020-05-15 17:00:00 10.3 11 Noroeste 19 Norte 0 -- -- 87
2020-05-15 16:00:00 10.6 12 Norte 19 Norte 0 -- -- 86
2020-05-15 15:00:00 10.4 9 Noroeste 19 Noroeste 0 -- -- 90
2020-05-15 14:00:00 10.5 11 Noroeste 18 Noroeste 0 -- -- 91
2020-05-15 13:00:00 10.5 12 Noroeste 18 Noroeste 0 -- -- 91
2020-05-15 12:00:00 10.3 10 Noroeste 16 Noroeste 0 -- -- 93
2020-05-15 11:00:00 10 12 Noroeste 17 Noroeste 0 -- -- 95
2020-05-15 10:00:00 9.8 9 Noroeste 15 Noroeste 0 -- -- 98
2020-05-15 09:00:00 9.4 3 Sudoeste 7 Sudoeste 0 -- -- 99
2020-05-15 08:00:00 9 4 Sudoeste 10 Sudoeste 0 -- -- 99
2020-05-15 07:00:00 8.8 6 Oeste 10 Oeste 0 -- -- 99
2020-05-15 06:00:00 8.9 5 Oeste 11 Oeste 0 -- -- 98
2020-05-15 05:00:00 8.9 5 Oeste 10 Oeste 0 -- -- 98
2020-05-15 04:00:00 9 3 Oeste 9 Oeste 0 -- -- 97
2020-05-15 03:00:00 9.1 4 Oeste 9 Sudoeste 0 -- -- 96
2020-05-15 02:00:00 9.4 3 Oeste 7 Oeste 0 -- -- 96
2020-05-15 01:00:00 9.5 2 Noroeste 8 Noroeste 0 -- -- 95
2020-05-15 00:00:00 9.7 3 Oeste 6 Oeste 0 -- -- 96
2020-05-14 23:00:00 9.7 3 Noroeste 14 Noroeste 0 -- -- 96
2020-05-14 22:00:00 9.7 6 Noroeste 13 Noroeste 0 -- -- 94
2020-05-14 21:00:00 10.1 4 Oeste 17 Noroeste 0 -- -- 94
2020-05-14 20:00:00 10.5 7 Norte 18 Noroeste 0 -- -- 92
2020-05-14 19:00:00 11.1 6 Noroeste 17 Noroeste 0 -- -- 92
2020-05-14 18:00:00 11.3 11 Noroeste 16 Noroeste 0 -- -- 91
2020-05-14 17:00:00 11.5 9 Norte 18 Norte 0 -- -- 91
2020-05-14 16:00:00 12.1 9 Noroeste 18 Noroeste 0 -- -- 88
2020-05-14 15:00:00 12.2 2 Noroeste 21 Norte 0 -- -- 86
2020-05-14 14:00:00 11.3 9 Nordeste 19 Nordeste 0 -- -- 89
2020-05-14 13:00:00 12 6 Nordeste 19 Nordeste 0 -- -- 85
2020-05-14 12:00:00 11.8 9 Nordeste 17 Nordeste 0 -- -- 86
2020-05-14 11:00:00 11.8 7 Nordeste 21 Nordeste 0 -- -- 86
2020-05-14 10:00:00 11.9 11 Nordeste 22 Nordeste 0 -- -- 84
2020-05-14 09:00:00 11.1 6 Nordeste 11 Nordeste 0 -- -- 88
2020-05-14 08:00:00 10.4 3 Sudoeste 7 Noroeste 0 -- -- 96
2020-05-14 07:00:00 10.2 0 Calma 5 Este 0 -- -- 96
2020-05-14 06:00:00 9.9 2 Este 6 Nordeste 0 -- -- 96
2020-05-14 05:00:00 9.5 0 Calma 6 Sudeste 0 -- -- 97
2020-05-14 04:00:00 9.1 3 Sudeste 12 Sudeste 0 -- -- 94
2020-05-14 03:00:00 9.5 3 Sudeste 10 Nordeste 0 -- -- 95
2020-05-14 02:00:00 9.6 2 Sur 8 Sudeste 0 -- -- 97
2020-05-14 01:00:00 9.7 2 Sudeste 4 Sudeste 0 -- -- 96
2020-05-14 00:00:00 10.3 0 Calma 6 Sudoeste 0 -- -- 95
2020-05-13 23:00:00 10.4 0 Calma 6 Sudeste 0 -- -- 95
2020-05-13 22:00:00 10.9 0 Calma 11 Nordeste 0 -- -- 92
2020-05-13 21:00:00 12.4 5 Norte 18 Norte 0 -- -- 88
2020-05-13 20:00:00 14.4 7 Norte 19 Nordeste 0 -- -- 82
2020-05-13 19:00:00 15.9 6 Norte 14 Norte 0 -- -- 73
2020-05-13 18:00:00 16.4 5 Noroeste 15 Norte 0 -- -- 73
2020-05-13 17:00:00 15.6 4 Norte 10 Nordeste 0 -- -- 75
2020-05-13 16:00:00 14.1 5 Norte 9 Norte 0 -- -- 81
2020-05-13 15:00:00 14.5 4 Sudoeste 12 Oeste 0 -- -- 78
2020-05-13 14:00:00 13.4 7 Oeste 16 Oeste 0 -- -- 85
2020-05-13 13:00:00 12.6 7 Oeste 12 Oeste 0 -- -- 90
2020-05-13 12:00:00 11.7 6 Oeste 12 Oeste 0 -- -- 94
2020-05-13 11:00:00 11.3 4 Oeste 8 Sudoeste 0 -- -- 98
2020-05-13 10:00:00 10 3 Oeste 10 Oeste 0 -- -- 99
2020-05-13 09:00:00 9.5 5 Oeste 10 Oeste 0 -- -- 100
2020-05-13 08:00:00 9.2 3 Oeste 9 Sudoeste 0.2 -- -- 100
2020-05-13 07:00:00 8.9 3 Sudoeste 12 Oeste 1.6 -- -- 100
2020-05-13 06:00:00 8.8 4 Oeste 13 Sudoeste 4 -- -- 99
2020-05-13 05:00:00 9.2 3 Este 10 Sudoeste 4 -- -- 99
2020-05-13 04:00:00 9.5 3 Oeste 9 Oeste 1.6 -- -- 99
2020-05-13 03:00:00 9.9 3 Oeste 6 Oeste 1.2 -- -- 99
2020-05-13 02:00:00 10 3 Oeste 6 Oeste 1.2 -- -- 98
2020-05-13 01:00:00 10.3 4 Oeste 9 Oeste 1.2 -- -- 98
2020-05-13 00:00:00 10.5 2 Sudoeste 6 Sudoeste 1.6 -- -- 98
2020-05-12 23:00:00 10.7 2 Sudoeste 8 Sur 0.4 -- -- 97
2020-05-12 22:00:00 10.9 4 Oeste 8 Oeste 0 -- -- 96
2020-05-12 21:00:00 11.8 3 Sudoeste 12 Oeste 0.4 -- -- 93
2020-05-12 20:00:00 13.1 5 Sudoeste 13 Sudoeste 0.6 -- -- 90
2020-05-12 19:00:00 15.3 6 Oeste 17 Oeste 0 -- -- 83
2020-05-12 18:00:00 16.3 4 Noroeste 12 Norte 0 -- -- 78
2020-05-12 17:00:00 15.9 7 Nordeste 14 Norte 0 -- -- 79
2020-05-12 16:00:00 16.5 4 Noroeste 10 Nordeste 0 -- -- 75
2020-05-12 15:00:00 15.2 4 Noroeste 13 Noroeste 0 -- -- 78
2020-05-12 14:00:00 15 3 Oeste 11 Norte 0 -- -- 76
2020-05-12 13:00:00 14.1 4 Sur 10 Sudoeste 0 -- -- 82
2020-05-12 12:00:00 12.1 3 Sur 10 Sudoeste 0 -- -- 88
2020-05-12 11:00:00 10.4 2 Norte 7 Norte 0 -- -- 93
2020-05-12 10:00:00 9.4 3 Oeste 13 Noroeste 0 -- -- 98
2020-05-12 09:00:00 8.8 5 Oeste 14 Oeste 0 -- -- 98
2020-05-12 08:00:00 8.8 3 Oeste 10 Oeste 0 -- -- 99
2020-05-12 07:00:00 8.9 5 Oeste 10 Oeste 0 -- -- 98
2020-05-12 06:00:00 9.4 3 Sudeste 5 Noroeste 0 -- -- 98
2020-05-12 05:00:00 9.8 4 Oeste 8 Oeste 0 -- -- 98
2020-05-12 04:00:00 9.9 4 Oeste 10 Oeste 0 -- -- 98
2020-05-12 03:00:00 10 4 Norte 6 Norte 0 -- -- 97
2020-05-12 02:00:00 10.3 5 Noroeste 9 Noroeste 0 -- -- 97
2020-05-12 01:00:00 10.6 3 Oeste 8 Oeste 0 -- -- 97
2020-05-12 00:00:00 10.8 3 Sudoeste 10 Oeste 0 -- -- 96
2020-05-11 23:00:00 10.9 5 Noroeste 13 Noroeste 0 -- -- 95
2020-05-11 22:00:00 11.4 4 Norte 11 Noroeste 0 -- -- 93
2020-05-11 21:00:00 11.7 7 Noroeste 15 Noroeste 0 -- -- 93
2020-05-11 20:00:00 13 8 Noroeste 17 Norte 0 -- -- 89
2020-05-11 19:00:00 13.8 4 Norte 12 Noroeste 0.6 -- -- 90
2020-05-11 18:00:00 12.8 4 Sur 23 Sudoeste 2.4 -- -- 94
2020-05-11 17:00:00 13.3 5 Sudoeste 34 Oeste 4.4 -- -- 86
2020-05-11 16:00:00 16.6 13 Noroeste 23 Noroeste 0 -- -- 71
2020-05-11 15:00:00 17.6 14 Noroeste 31 Noroeste 0 -- -- 73
2020-05-11 14:00:00 17.1 16 Noroeste 33 Oeste 0 -- -- 76
2020-05-11 13:00:00 15.7 17 Oeste 28 Oeste 0 -- -- 77
2020-05-11 12:00:00 14.1 14 Oeste 23 Oeste 0 -- -- 84
2020-05-11 11:00:00 13.8 13 Oeste 25 Oeste 0 -- -- 84
2020-05-11 10:00:00 12.4 5 Oeste 12 Sudoeste 0 -- -- 89
2020-05-11 09:00:00 10.3 2 Noroeste 10 Sur 0 -- -- 96
2020-05-11 08:00:00 9.4 0 Calma 6 Sudeste 0 -- -- 98
2020-05-11 07:00:00 9.4 2 Este 5 Este 0 -- -- 97
2020-05-11 06:00:00 9.8 2 Oeste 6 Noroeste 0 -- -- 97
2020-05-11 05:00:00 9.9 2 Oeste 10 Oeste 0 -- -- 97
2020-05-11 04:00:00 10 3 Oeste 6 Sudoeste 0 -- -- 97
2020-05-11 03:00:00 10 4 Noroeste 8 Oeste 0 -- -- 97
2020-05-11 02:00:00 10.1 3 Oeste 9 Sudoeste 0 -- -- 97
2020-05-11 01:00:00 10.1 2 Sudoeste 17 Noroeste 0 -- -- 98
2020-05-11 00:00:00 10.1 10 Oeste 26 Oeste 1 -- -- 98
2020-05-10 23:00:00 10.5 4 Oeste 17 Oeste 0.6 -- -- 99
2020-05-10 22:00:00 10.6 9 Oeste 23 Oeste 1.2 -- -- 99
2020-05-10 21:00:00 11 8 Oeste 19 Oeste 0.6 -- -- 97
2020-05-10 20:00:00 11.1 10 Oeste 32 Oeste 0.2 -- -- 96
2020-05-10 19:00:00 11.6 18 Oeste 32 Oeste 0 -- -- 95
2020-05-10 18:00:00 11.8 13 Oeste 24 Oeste 0.2 -- -- 96
2020-05-10 17:00:00 11.9 13 Oeste 34 Oeste 1.6 -- -- 96
2020-05-10 16:00:00 12.3 17 Oeste 27 Oeste 4 -- -- 95
2020-05-10 15:00:00 13.6 12 Noroeste 20 Norte 0 -- -- 85
2020-05-10 14:00:00 13.5 2 Norte 22 Noroeste 0 -- -- 87
2020-05-10 13:00:00 13.8 6 Noroeste 12 Oeste 0 -- -- 86
2020-05-10 12:00:00 13.9 5 Oeste 12 Oeste 0 -- -- 87
2020-05-10 11:00:00 13.4 6 Oeste 13 Noroeste 0 -- -- 86
2020-05-10 10:00:00 13.3 4 Oeste 11 Sudoeste 0 -- -- 86
2020-05-10 09:00:00 11.7 0 Calma 10 Sudeste 0.2 -- -- 97
2020-05-10 08:00:00 10.2 3 Sur 26 Sudoeste 10 -- -- 96
2020-05-10 07:00:00 11.6 7 Sudoeste 19 Sudoeste 2.4 -- -- 92
2020-05-10 06:00:00 12.3 4 Sudoeste 12 Sudoeste 0.6 -- -- 92
2020-05-10 05:00:00 12.6 0 Calma 9 Sudeste 0 -- -- 91
2020-05-10 04:00:00 12.9 3 Oeste 20 Sudeste 0 -- -- 88
2020-05-10 03:00:00 15 14 Sudeste 33 Este 0 -- -- 87
2020-05-10 02:00:00 15.4 20 Sudeste 37 Sudeste 0 -- -- 85
2020-05-10 01:00:00 15.9 21 Sudeste 39 Sudeste 0 -- -- 83
2020-05-10 00:00:00 16.4 19 Sudeste 48 Sudeste 0 -- -- 81
2020-05-09 23:00:00 16.7 29 Sudeste 48 Sudeste 0 -- -- 79
2020-05-09 22:00:00 17 10 Sudeste 31 Este 0 -- -- 77
2020-05-09 21:00:00 14.7 3 Este 13 Noroeste 0 -- -- 83
2020-05-09 20:00:00 16.3 6 Sur 33 Este 0 -- -- 72
2020-05-09 19:00:00 20.5 16 Sudeste 34 Este 0 -- -- 61
2020-05-09 18:00:00 20.4 15 Este 37 Sudeste 0 -- -- 64
2020-05-09 17:00:00 20.8 22 Sudeste 36 Este 0 -- -- 62
2020-05-09 16:00:00 21.3 20 Sudeste 38 Este 0 -- -- 58
2020-05-09 15:00:00 21.2 20 Sudeste 43 Sudeste 0 -- -- 59
2020-05-09 14:00:00 19.8 29 Sudeste 48 Sudeste 0 -- -- 59
2020-05-09 13:00:00 20.3 27 Sudeste 45 Sur 0 -- -- 62
2020-05-09 12:00:00 18.7 30 Sudeste 57 Sudeste 0 -- -- 59
2020-05-09 11:00:00 17.5 30 Sudeste 62 Sudeste 0 -- -- 61
2020-05-09 10:00:00 15.8 36 Sudeste 68 Sudeste 0 -- -- 62
2020-05-09 09:00:00 14.4 40 Sudeste 66 Sudeste 0 -- -- 67
2020-05-09 08:00:00 13.6 44 Sudeste 70 Sudeste 0 -- -- 68
2020-05-09 07:00:00 13.7 39 Sudeste 60 Sudeste 0 -- -- 68
2020-05-09 06:00:00 13.8 23 Sudeste 56 Sudeste 0 -- -- 75
2020-05-09 05:00:00 14.9 34 Sudeste 77 Sudeste 0.2 -- -- 73
2020-05-09 04:00:00 15.4 31 Sudeste 59 Sudeste 0 -- -- 63
2020-05-09 03:00:00 15.6 19 Este 50 Sudeste 0 -- -- 60
2020-05-09 02:00:00 15.4 31 Sudeste 49 Este 0 -- -- 68
2020-05-09 01:00:00 14.9 24 Sudeste 53 Este 3.4 -- -- 85
2020-05-09 00:00:00 14.8 21 Este 34 Este 4.8 -- -- 89
2020-05-08 23:00:00 15.6 5 Sudeste 12 Oeste 0.8 -- -- 87
2020-05-08 22:00:00 16.3 5 Sudeste 17 Noroeste 0 -- -- 79
2020-05-08 21:00:00 19 9 Sudeste 18 Sudeste 0 -- -- 58
2020-05-08 20:00:00 19.4 9 Sudeste 31 Sudeste 0 -- -- 56
2020-05-08 19:00:00 21 17 Sudeste 35 Este 0 -- -- 55
2020-05-08 18:00:00 21.8 23 Sudeste 42 Sudeste 0 -- -- 52
2020-05-08 17:00:00 23.5 25 Sudeste 50 Sudeste 0 -- -- 52
2020-05-08 16:00:00 22.9 31 Sudeste 54 Sudeste 0 -- -- 52
2020-05-08 15:00:00 22.5 27 Sudeste 47 Sudeste 0 -- -- 56
2020-05-08 14:00:00 20.9 26 Sudeste 47 Sudeste 0 -- -- 56
2020-05-08 13:00:00 19 34 Sudeste 55 Sudeste 0 -- -- 63
2020-05-08 12:00:00 16 19 Sudeste 44 Sudeste 0 -- -- 78
2020-05-08 11:00:00 16.2 30 Sudeste 57 Este 0 -- -- 69
2020-05-08 10:00:00 16.9 26 Sudeste 46 Sudeste 0 -- -- 68
2020-05-08 09:00:00 16.3 23 Sudeste 41 Sudeste 0 -- -- 64
2020-05-08 08:00:00 15.7 19 Sudeste 71 Sudeste 0 -- -- 64
2020-05-08 07:00:00 15.8 46 Sudeste 75 Sudeste 0 -- -- 63
2020-05-08 06:00:00 15.8 40 Sudeste 70 Sudeste 0 -- -- 63
2020-05-08 05:00:00 16.5 36 Sudeste 63 Sudeste 0 -- -- 63
2020-05-08 04:00:00 17.1 39 Sudeste 67 Sudeste 0 -- -- 63
2020-05-08 03:00:00 18.3 32 Sudeste 59 Sudeste 0 -- -- 61
2020-05-08 02:00:00 19.9 37 Sudeste 66 Sudeste 0 -- -- 54
2020-05-08 01:00:00 20 35 Sudeste 59 Sudeste 0 -- -- 59
2020-05-08 00:00:00 20.2 28 Sudeste 55 Sudeste 0 -- -- 57
2020-05-07 23:00:00 20.9 31 Sudeste 55 Sudeste 0 -- -- 56
2020-05-07 22:00:00 21.1 26 Sudeste 47 Sudeste 0 -- -- 58
2020-05-07 21:00:00 21.7 22 Sudeste 41 Sudeste 0 -- -- 57
2020-05-07 20:00:00 22.1 18 Este 40 Este 0 -- -- 56
2020-05-07 19:00:00 22.5 23 Sudeste 43 Este 0 -- -- 57
2020-05-07 18:00:00 23.2 24 Sudeste 48 Este 0 -- -- 56
2020-05-07 17:00:00 23.1 29 Sudeste 49 Sudeste 0 -- -- 57
2020-05-07 16:00:00 23 27 Sudeste 49 Sudeste 0 -- -- 57
2020-05-07 15:00:00 23 27 Sudeste 44 Sudeste 0 -- -- 57
2020-05-07 14:00:00 21.8 26 Sudeste 46 Sudeste 0 -- -- 58
2020-05-07 13:00:00 21 24 Sudeste 41 Sudeste 0 -- -- 61
2020-05-07 12:00:00 21.4 21 Sudeste 35 Sudeste 0 -- -- 60
2020-05-07 11:00:00 20.7 14 Sudeste 34 Sudeste 0 -- -- 64
2020-05-07 10:00:00 18.3 6 Noroeste 19 Este 0 -- -- 72
2020-05-07 09:00:00 14.3 2 Oeste 4 Oeste 0 -- -- 92
2020-05-07 08:00:00 10.7 2 Sur 9 Sudeste 0 -- -- 97
2020-05-07 07:00:00 9.9 5 Sudeste 10 Sudeste 0 -- -- 95
2020-05-07 06:00:00 10.1 8 Sudeste 11 Sudeste 0 -- -- 95
2020-05-07 05:00:00 10.5 5 Sudeste 10 Sudeste 0 -- -- 95
2020-05-07 04:00:00 10.7 7 Sudeste 9 Sudeste 0 -- -- 94
2020-05-07 03:00:00 11.4 7 Sudeste 13 Sudeste 0 -- -- 93
2020-05-07 02:00:00 12.2 8 Sudeste 10 Sudeste 0 -- -- 93
2020-05-07 01:00:00 13.2 4 Sudeste 6 Sudeste 0 -- -- 88
2020-05-07 00:00:00 14.6 3 Sur 12 Sudeste 0 -- -- 84
2020-05-06 23:00:00 14.8 3 Sudeste 11 Este 0 -- -- 82
2020-05-06 22:00:00 16.6 6 Sudeste 15 Nordeste 0 -- -- 79
2020-05-06 21:00:00 19 5 Este 17 Nordeste 0 -- -- 72
2020-05-06 20:00:00 20.5 11 Nordeste 24 Nordeste 0 -- -- 66
2020-05-06 19:00:00 21.8 12 Nordeste 24 Nordeste 0 -- -- 61
2020-05-06 18:00:00 23.1 7 Norte 15 Nordeste 0 -- -- 54
2020-05-06 17:00:00 23.6 7 Noroeste 14 Noroeste 0 -- -- 47
2020-05-06 16:00:00 23.3 6 Noroeste 13 Oeste 0 -- -- 45
2020-05-06 15:00:00 23.1 6 Oeste 15 Oeste 0 -- -- 52
2020-05-06 14:00:00 22.2 4 Este 13 Sudoeste 0 -- -- 51
2020-05-06 13:00:00 21.3 4 Oeste 11 Oeste 0 -- -- 56
2020-05-06 12:00:00 20 4 Oeste 9 Oeste 0 -- -- 53
2020-05-06 11:00:00 18.5 4 Noroeste 6 Noroeste 0 -- -- 60
2020-05-06 10:00:00 17 3 Norte 5 Noroeste 0 -- -- 68
2020-05-06 09:00:00 14.5 2 Oeste 6 Sudeste 0 -- -- 71
2020-05-06 08:00:00 10.6 6 Sudeste 9 Sudeste 0 -- -- 86
2020-05-06 07:00:00 9.2 6 Sudeste 10 Sudeste 0 -- -- 89
2020-05-06 06:00:00 9.7 6 Sudeste 11 Sudeste 0 -- -- 87
2020-05-06 05:00:00 9.6 6 Sudeste 11 Sudeste 0 -- -- 86
2020-05-06 04:00:00 10.7 9 Sudeste 12 Sudeste 0 -- -- 81
2020-05-06 03:00:00 10.2 7 Sudeste 13 Sudeste 0 -- -- 84
2020-05-06 02:00:00 10.1 9 Sudeste 14 Sudeste 0 -- -- 83
2020-05-06 01:00:00 10.8 13 Sudeste 15 Sudeste 0 -- -- 76
2020-05-06 00:00:00 10.4 9 Sudeste 14 Sudeste 0 -- -- 77
2020-05-05 23:00:00 11.1 9 Sudeste 14 Sudeste 0 -- -- 73
2020-05-05 22:00:00 12.9 12 Sudeste 15 Sudeste 0 -- -- 62
2020-05-05 21:00:00 16.3 6 Sudeste 9 Sudeste 0 -- -- 61
2020-05-05 20:00:00 20.5 3 Sur 12 Oeste 0 -- -- 51
2020-05-05 19:00:00 22.1 8 Noroeste 15 Noroeste 0 -- -- 49
2020-05-05 18:00:00 22 8 Norte 17 Noroeste 0 -- -- 47
2020-05-05 17:00:00 22 8 Norte 13 Noroeste 0 -- -- 49
2020-05-05 16:00:00 22.1 7 Noroeste 14 Nordeste 0 -- -- 53
2020-05-05 15:00:00 21.1 6 Norte 15 Norte 0 -- -- 53
2020-05-05 14:00:00 20.5 7 Nordeste 14 Noroeste 0 -- -- 53
2020-05-05 13:00:00 19.8 8 Noroeste 15 Nordeste 0 -- -- 53
2020-05-05 12:00:00 19.3 8 Norte 17 Noroeste 0 -- -- 65
2020-05-05 11:00:00 17.8 5 Noroeste 17 Noroeste 0 -- -- 67
2020-05-05 10:00:00 17.3 10 Oeste 21 Sur 0 -- -- 69
2020-05-05 09:00:00 14.8 9 Sudeste 17 Sudeste 0 -- -- 76
2020-05-05 08:00:00 12 4 Sudeste 14 Sudeste 0 -- -- 87
2020-05-05 07:00:00 11.5 9 Sudeste 14 Sudeste 0 -- -- 87
2020-05-05 06:00:00 11.6 8 Sudeste 13 Sudeste 0 -- -- 88
2020-05-05 05:00:00 12 8 Sudeste 11 Sudeste 0 -- -- 86
2020-05-05 04:00:00 12.6 8 Sudeste 15 Sudeste 0 -- -- 84
2020-05-05 03:00:00 13.3 11 Sudeste 17 Sudeste 0 -- -- 82
2020-05-05 02:00:00 13.5 10 Sudeste 14 Sudeste 0 -- -- 82
2020-05-05 01:00:00 13.8 9 Sudeste 14 Sudeste 0 -- -- 82
2020-05-05 00:00:00 16.2 3 Este 28 Sudoeste 0 -- -- 76